sensor_id;sensor_type;location;lat;lon;timestamp;temperature;humidity
296;DHT22;132;48.770;9.200;2022-08-01T00:00:10;22.10;1.00
296;DHT22;132;48.770;9.200;2022-08-01T00:02:57;22.20;1.00
296;DHT22;132;48.770;9.200;2022-08-01T00:05:44;22.20;1.00
296;DHT22;132;48.770;9.200;2022-08-01T00:08:31;22.10;1.00
296;DHT22;132;48.770;9.200;2022-08-01T00:11:18;22.10;1.00
296;DHT22;132;48.770;9.200;2022-08-01T00:14:04;22.00;1.00
296;DHT22;132;48.770;9.200;2022-08-01T00:16:51;22.20;1.00
296;DHT22;132;48.770;9.200;2022-08-01T00:19:38;22.00;1.00
296;DHT22;132;48.770;9.200;2022-08-01T00:22:24;21.90;1.00
296;DHT22;132;48.770;9.200;2022-08-01T00:25:11;21.90;1.00
296;DHT22;132;48.770;9.200;2022-08-01T00:27:57;21.90;1.00
296;DHT22;132;48.770;9.200;2022-08-01T00:30:44;21.90;1.00
296;DHT22;132;48.770;9.200;2022-08-01T00:33:30;21.80;1.00
296;DHT22;132;48.770;9.200;2022-08-01T00:36:17;21.80;1.00
296;DHT22;132;48.770;9.200;2022-08-01T00:39:04;21.80;1.00
296;DHT22;132;48.770;9.200;2022-08-01T00:41:51;21.80;1.00
296;DHT22;132;48.770;9.200;2022-08-01T00:44:38;21.70;1.00
296;DHT22;132;48.770;9.200;2022-08-01T00:47:25;21.60;1.00
296;DHT22;132;48.770;9.200;2022-08-01T00:50:12;21.60;1.00
296;DHT22;132;48.770;9.200;2022-08-01T00:52:59;21.60;1.00
296;DHT22;132;48.770;9.200;2022-08-01T00:55:47;21.50;1.00
296;DHT22;132;48.770;9.200;2022-08-01T00:58:34;21.50;1.00
296;DHT22;132;48.770;9.200;2022-08-01T01:01:21;21.50;1.00
296;DHT22;132;48.770;9.200;2022-08-01T01:04:08;21.50;1.00
296;DHT22;132;48.770;9.200;2022-08-01T01:07:06;21.40;1.00
296;DHT22;132;48.770;9.200;2022-08-01T01:10:03;21.40;1.00
296;DHT22;132;48.770;9.200;2022-08-01T01:13:06;21.40;1.00
296;DHT22;132;48.770;9.200;2022-08-01T01:16:02;21.40;1.00
296;DHT22;132;48.770;9.200;2022-08-01T01:18:56;21.30;1.00
296;DHT22;132;48.770;9.200;2022-08-01T01:22:08;21.30;1.00
296;DHT22;132;48.770;9.200;2022-08-01T01:31:37;21.20;1.00
296;DHT22;132;48.770;9.200;2022-08-01T01:34:26;21.20;1.00
296;DHT22;132;48.770;9.200;2022-08-01T01:37:17;21.20;1.00
296;DHT22;132;48.770;9.200;2022-08-01T01:40:05;21.20;1.00
296;DHT22;132;48.770;9.200;2022-08-01T01:42:55;21.10;1.00
296;DHT22;132;48.770;9.200;2022-08-01T01:45:43;21.10;1.00
296;DHT22;132;48.770;9.200;2022-08-01T01:48:31;21.10;1.00
296;DHT22;132;48.770;9.200;2022-08-01T01:51:21;21.10;1.00
296;DHT22;132;48.770;9.200;2022-08-01T01:54:09;21.00;1.00
296;DHT22;132;48.770;9.200;2022-08-01T01:56:58;21.00;1.00
296;DHT22;132;48.770;9.200;2022-08-01T01:59:46;21.00;1.00
296;DHT22;132;48.770;9.200;2022-08-01T02:02:36;21.00;1.00
296;DHT22;132;48.770;9.200;2022-08-01T02:05:24;21.00;1.00
296;DHT22;132;48.770;9.200;2022-08-01T02:08:14;21.00;1.00
296;DHT22;132;48.770;9.200;2022-08-01T02:11:02;21.00;1.00
296;DHT22;132;48.770;9.200;2022-08-01T02:14:05;20.90;1.00
296;DHT22;132;48.770;9.200;2022-08-01T02:16:54;20.90;1.00
296;DHT22;132;48.770;9.200;2022-08-01T02:19:43;20.80;1.00
296;DHT22;132;48.770;9.200;2022-08-01T02:22:33;20.70;1.00
296;DHT22;132;48.770;9.200;2022-08-01T02:25:29;20.80;1.00
296;DHT22;132;48.770;9.200;2022-08-01T02:31:17;20.70;1.00
296;DHT22;132;48.770;9.200;2022-08-01T02:34:07;20.60;1.00
296;DHT22;132;48.770;9.200;2022-08-01T02:36:56;20.60;1.00
296;DHT22;132;48.770;9.200;2022-08-01T02:39:47;20.50;1.00
296;DHT22;132;48.770;9.200;2022-08-01T02:42:35;20.50;1.00
296;DHT22;132;48.770;9.200;2022-08-01T02:45:25;20.50;1.00
296;DHT22;132;48.770;9.200;2022-08-01T02:48:13;20.50;1.00
296;DHT22;132;48.770;9.200;2022-08-01T02:51:02;20.40;1.00
296;DHT22;132;48.770;9.200;2022-08-01T02:53:50;20.40;1.00
296;DHT22;132;48.770;9.200;2022-08-01T02:56:38;20.30;1.00
296;DHT22;132;48.770;9.200;2022-08-01T02:59:28;20.30;1.00
296;DHT22;132;48.770;9.200;2022-08-01T03:02:17;20.30;1.00
296;DHT22;132;48.770;9.200;2022-08-01T03:05:05;20.30;1.00
296;DHT22;132;48.770;9.200;2022-08-01T03:07:56;20.30;1.00
296;DHT22;132;48.770;9.200;2022-08-01T03:10:45;20.30;1.00
296;DHT22;132;48.770;9.200;2022-08-01T03:13:33;20.30;1.00
296;DHT22;132;48.770;9.200;2022-08-01T03:16:21;20.20;1.00
296;DHT22;132;48.770;9.200;2022-08-01T03:19:11;20.20;1.00
296;DHT22;132;48.770;9.200;2022-08-01T03:21:58;20.10;1.00
296;DHT22;132;48.770;9.200;2022-08-01T03:24:47;20.10;1.00
296;DHT22;132;48.770;9.200;2022-08-01T03:27:36;20.10;1.00
296;DHT22;132;48.770;9.200;2022-08-01T03:30:25;20.10;1.00
296;DHT22;132;48.770;9.200;2022-08-01T03:33:13;20.10;1.00
296;DHT22;132;48.770;9.200;2022-08-01T03:36:00;20.10;1.00
296;DHT22;132;48.770;9.200;2022-08-01T03:38:50;20.00;1.00
296;DHT22;132;48.770;9.200;2022-08-01T03:41:41;20.00;1.00
296;DHT22;132;48.770;9.200;2022-08-01T03:44:29;20.00;1.00
296;DHT22;132;48.770;9.200;2022-08-01T03:47:18;20.00;1.00
296;DHT22;132;48.770;9.200;2022-08-01T03:50:08;19.90;1.00
296;DHT22;132;48.770;9.200;2022-08-01T03:53:00;20.00;1.00
296;DHT22;132;48.770;9.200;2022-08-01T03:55:47;20.00;1.00
296;DHT22;132;48.770;9.200;2022-08-01T04:07:33;19.90;1.00
296;DHT22;132;48.770;9.200;2022-08-01T04:10:23;19.90;1.00
296;DHT22;132;48.770;9.200;2022-08-01T04:13:09;20.00;1.00
296;DHT22;132;48.770;9.200;2022-08-01T04:15:56;20.00;1.00
296;DHT22;132;48.770;9.200;2022-08-01T04:18:42;20.00;1.00
296;DHT22;132;48.770;9.200;2022-08-01T04:21:31;20.10;1.00
296;DHT22;132;48.770;9.200;2022-08-01T04:24:19;20.10;1.00
296;DHT22;132;48.770;9.200;2022-08-01T04:27:13;20.20;1.00
296;DHT22;132;48.770;9.200;2022-08-01T04:30:01;20.20;1.00
296;DHT22;132;48.770;9.200;2022-08-01T04:32:48;20.30;1.00
296;DHT22;132;48.770;9.200;2022-08-01T04:35:38;20.30;1.00
296;DHT22;132;48.770;9.200;2022-08-01T04:38:28;20.40;1.00
296;DHT22;132;48.770;9.200;2022-08-01T04:41:15;20.40;1.00
296;DHT22;132;48.770;9.200;2022-08-01T04:44:04;20.40;1.00
296;DHT22;132;48.770;9.200;2022-08-01T04:46:51;20.40;1.00
296;DHT22;132;48.770;9.200;2022-08-01T04:49:40;20.40;1.00
296;DHT22;132;48.770;9.200;2022-08-01T04:52:35;20.40;1.00
296;DHT22;132;48.770;9.200;2022-08-01T04:55:22;20.40;1.00
296;DHT22;132;48.770;9.200;2022-08-01T04:58:10;20.50;1.00
296;DHT22;132;48.770;9.200;2022-08-01T05:00:56;20.50;1.00
296;DHT22;132;48.770;9.200;2022-08-01T05:03:43;20.50;1.00
296;DHT22;132;48.770;9.200;2022-08-01T05:06:30;20.60;1.00
296;DHT22;132;48.770;9.200;2022-08-01T05:09:16;20.60;1.00
296;DHT22;132;48.770;9.200;2022-08-01T05:12:05;20.60;1.00
296;DHT22;132;48.770;9.200;2022-08-01T05:14:52;20.60;1.00
296;DHT22;132;48.770;9.200;2022-08-01T05:17:38;20.60;1.00
296;DHT22;132;48.770;9.200;2022-08-01T05:20:25;20.70;1.00
296;DHT22;132;48.770;9.200;2022-08-01T05:23:11;20.80;1.00
296;DHT22;132;48.770;9.200;2022-08-01T05:25:58;20.90;1.00
296;DHT22;132;48.770;9.200;2022-08-01T05:28:45;21.00;1.00
296;DHT22;132;48.770;9.200;2022-08-01T05:31:31;21.00;1.00
296;DHT22;132;48.770;9.200;2022-08-01T05:34:22;21.10;1.00
296;DHT22;132;48.770;9.200;2022-08-01T05:37:09;21.10;1.00
296;DHT22;132;48.770;9.200;2022-08-01T05:39:56;21.20;1.00
296;DHT22;132;48.770;9.200;2022-08-01T05:42:42;21.20;1.00
296;DHT22;132;48.770;9.200;2022-08-01T05:45:29;21.20;1.00
296;DHT22;132;48.770;9.200;2022-08-01T05:48:15;21.30;1.00
296;DHT22;132;48.770;9.200;2022-08-01T05:51:02;21.30;1.00
296;DHT22;132;48.770;9.200;2022-08-01T05:53:49;21.40;1.00
296;DHT22;132;48.770;9.200;2022-08-01T05:56:35;21.50;1.00
296;DHT22;132;48.770;9.200;2022-08-01T05:59:22;21.50;1.00
296;DHT22;132;48.770;9.200;2022-08-01T06:02:09;21.60;1.00
296;DHT22;132;48.770;9.200;2022-08-01T06:04:55;21.70;1.00
296;DHT22;132;48.770;9.200;2022-08-01T06:07:42;21.80;1.00
296;DHT22;132;48.770;9.200;2022-08-01T06:10:28;22.10;1.00
296;DHT22;132;48.770;9.200;2022-08-01T06:13:15;21.90;1.00
296;DHT22;132;48.770;9.200;2022-08-01T06:16:01;22.00;1.00
296;DHT22;132;48.770;9.200;2022-08-01T06:18:48;22.00;1.00
296;DHT22;132;48.770;9.200;2022-08-01T06:21:35;22.10;1.00
296;DHT22;132;48.770;9.200;2022-08-01T06:24:21;22.30;1.00
296;DHT22;132;48.770;9.200;2022-08-01T06:27:10;22.30;1.00
296;DHT22;132;48.770;9.200;2022-08-01T06:29:56;22.30;1.00
296;DHT22;132;48.770;9.200;2022-08-01T06:32:43;22.40;1.00
296;DHT22;132;48.770;9.200;2022-08-01T06:35:29;22.40;1.00
296;DHT22;132;48.770;9.200;2022-08-01T06:38:16;22.50;1.00
296;DHT22;132;48.770;9.200;2022-08-01T06:41:03;22.50;1.00
296;DHT22;132;48.770;9.200;2022-08-01T06:43:50;22.60;1.00
296;DHT22;132;48.770;9.200;2022-08-01T06:46:36;22.60;1.00
296;DHT22;132;48.770;9.200;2022-08-01T06:49:23;22.70;1.00
296;DHT22;132;48.770;9.200;2022-08-01T06:52:10;22.80;1.00
296;DHT22;132;48.770;9.200;2022-08-01T06:54:56;22.80;1.00
296;DHT22;132;48.770;9.200;2022-08-01T06:57:52;22.90;1.00
296;DHT22;132;48.770;9.200;2022-08-01T07:00:38;23.00;1.00
296;DHT22;132;48.770;9.200;2022-08-01T07:03:25;23.00;1.00
296;DHT22;132;48.770;9.200;2022-08-01T07:06:11;23.10;1.00
296;DHT22;132;48.770;9.200;2022-08-01T07:08:58;23.10;1.00
296;DHT22;132;48.770;9.200;2022-08-01T07:11:46;23.20;1.00
296;DHT22;132;48.770;9.200;2022-08-01T07:14:33;23.30;1.00
296;DHT22;132;48.770;9.200;2022-08-01T07:17:19;23.50;1.00
296;DHT22;132;48.770;9.200;2022-08-01T07:20:11;23.60;1.00
296;DHT22;132;48.770;9.200;2022-08-01T07:22:58;23.80;1.00
296;DHT22;132;48.770;9.200;2022-08-01T07:25:45;23.80;1.00
296;DHT22;132;48.770;9.200;2022-08-01T07:28:31;23.80;1.00
296;DHT22;132;48.770;9.200;2022-08-01T07:31:18;23.80;1.00
296;DHT22;132;48.770;9.200;2022-08-01T07:34:05;23.70;1.00
296;DHT22;132;48.770;9.200;2022-08-01T07:36:52;23.70;1.00
296;DHT22;132;48.770;9.200;2022-08-01T07:39:39;23.70;1.00
296;DHT22;132;48.770;9.200;2022-08-01T07:42:26;23.60;1.00
296;DHT22;132;48.770;9.200;2022-08-01T07:45:13;23.70;1.00
296;DHT22;132;48.770;9.200;2022-08-01T07:48:06;24.20;1.00
296;DHT22;132;48.770;9.200;2022-08-01T07:50:53;24.10;1.00
296;DHT22;132;48.770;9.200;2022-08-01T07:53:40;24.10;1.00
296;DHT22;132;48.770;9.200;2022-08-01T07:56:27;24.20;1.00
296;DHT22;132;48.770;9.200;2022-08-01T07:59:13;24.40;1.00
296;DHT22;132;48.770;9.200;2022-08-01T08:02:00;24.50;1.00
296;DHT22;132;48.770;9.200;2022-08-01T08:04:47;24.80;1.00
296;DHT22;132;48.770;9.200;2022-08-01T08:07:33;24.80;1.00
296;DHT22;132;48.770;9.200;2022-08-01T08:10:20;24.90;1.00
296;DHT22;132;48.770;9.200;2022-08-01T08:13:07;24.90;1.00
296;DHT22;132;48.770;9.200;2022-08-01T08:15:54;25.00;1.00
296;DHT22;132;48.770;9.200;2022-08-01T08:18:40;24.90;1.00
296;DHT22;132;48.770;9.200;2022-08-01T08:21:27;25.00;1.00
296;DHT22;132;48.770;9.200;2022-08-01T08:24:14;25.00;1.00
296;DHT22;132;48.770;9.200;2022-08-01T08:27:07;25.10;1.00
296;DHT22;132;48.770;9.200;2022-08-01T08:29:54;25.10;1.00
296;DHT22;132;48.770;9.200;2022-08-01T08:32:40;25.30;1.00
296;DHT22;132;48.770;9.200;2022-08-01T08:35:27;25.30;1.00
296;DHT22;132;48.770;9.200;2022-08-01T08:38:14;25.40;1.00
296;DHT22;132;48.770;9.200;2022-08-01T08:41:00;25.40;1.00
296;DHT22;132;48.770;9.200;2022-08-01T08:43:47;25.50;1.00
296;DHT22;132;48.770;9.200;2022-08-01T08:46:34;25.50;1.00
296;DHT22;132;48.770;9.200;2022-08-01T08:49:27;25.60;1.00
296;DHT22;132;48.770;9.200;2022-08-01T08:52:15;25.60;1.00
296;DHT22;132;48.770;9.200;2022-08-01T08:55:03;25.90;1.00
296;DHT22;132;48.770;9.200;2022-08-01T08:57:50;26.20;1.00
296;DHT22;132;48.770;9.200;2022-08-01T09:00:39;26.10;1.00
296;DHT22;132;48.770;9.200;2022-08-01T09:03:26;26.00;1.00
296;DHT22;132;48.770;9.200;2022-08-01T09:06:13;25.80;1.00
296;DHT22;132;48.770;9.200;2022-08-01T09:09:00;25.70;1.00
296;DHT22;132;48.770;9.200;2022-08-01T09:11:47;25.70;1.00
296;DHT22;132;48.770;9.200;2022-08-01T09:14:44;25.60;1.00
296;DHT22;132;48.770;9.200;2022-08-01T09:17:40;25.70;1.00
296;DHT22;132;48.770;9.200;2022-08-01T09:20:27;25.70;1.00
296;DHT22;132;48.770;9.200;2022-08-01T09:26:35;25.90;1.00
296;DHT22;132;48.770;9.200;2022-08-01T09:29:28;25.70;1.00
296;DHT22;132;48.770;9.200;2022-08-01T09:32:15;25.70;1.00
296;DHT22;132;48.770;9.200;2022-08-01T09:35:24;25.90;1.00
296;DHT22;132;48.770;9.200;2022-08-01T09:41:05;25.90;1.00
296;DHT22;132;48.770;9.200;2022-08-01T09:43:53;26.00;1.00
296;DHT22;132;48.770;9.200;2022-08-01T09:46:54;26.00;1.00
296;DHT22;132;48.770;9.200;2022-08-01T09:49:42;26.20;1.00
296;DHT22;132;48.770;9.200;2022-08-01T09:52:30;26.10;1.00
296;DHT22;132;48.770;9.200;2022-08-01T09:55:21;26.30;1.00
296;DHT22;132;48.770;9.200;2022-08-01T09:58:08;26.40;1.00
296;DHT22;132;48.770;9.200;2022-08-01T10:00:59;26.40;1.00
296;DHT22;132;48.770;9.200;2022-08-01T10:03:46;26.60;1.00
296;DHT22;132;48.770;9.200;2022-08-01T10:06:33;26.80;1.00
296;DHT22;132;48.770;9.200;2022-08-01T10:09:28;26.80;1.00
296;DHT22;132;48.770;9.200;2022-08-01T10:12:17;26.80;1.00
296;DHT22;132;48.770;9.200;2022-08-01T10:15:05;26.60;1.00
296;DHT22;132;48.770;9.200;2022-08-01T10:17:57;26.50;1.00
296;DHT22;132;48.770;9.200;2022-08-01T10:20:45;26.30;1.00
296;DHT22;132;48.770;9.200;2022-08-01T10:23:36;26.20;1.00
296;DHT22;132;48.770;9.200;2022-08-01T10:26:25;26.40;1.00
296;DHT22;132;48.770;9.200;2022-08-01T10:29:15;26.40;1.00
296;DHT22;132;48.770;9.200;2022-08-01T10:32:05;26.60;1.00
296;DHT22;132;48.770;9.200;2022-08-01T10:34:52;26.70;1.00
296;DHT22;132;48.770;9.200;2022-08-01T10:37:40;26.60;1.00
296;DHT22;132;48.770;9.200;2022-08-01T10:40:27;26.50;1.00
296;DHT22;132;48.770;9.200;2022-08-01T10:43:16;26.70;1.00
296;DHT22;132;48.770;9.200;2022-08-01T10:46:05;26.80;1.00
296;DHT22;132;48.770;9.200;2022-08-01T10:49:03;27.10;1.00
296;DHT22;132;48.770;9.200;2022-08-01T10:51:50;27.00;1.00
296;DHT22;132;48.770;9.200;2022-08-01T10:54:40;26.80;1.00
296;DHT22;132;48.770;9.200;2022-08-01T10:57:41;26.50;1.00
296;DHT22;132;48.770;9.200;2022-08-01T11:00:28;26.40;1.00
296;DHT22;132;48.770;9.200;2022-08-01T11:03:32;26.10;1.00
296;DHT22;132;48.770;9.200;2022-08-01T11:09:30;25.80;1.00
296;DHT22;132;48.770;9.200;2022-08-01T11:12:18;25.90;1.00
296;DHT22;132;48.770;9.200;2022-08-01T11:17:54;26.50;1.00
296;DHT22;132;48.770;9.200;2022-08-01T11:21:01;26.70;1.00
296;DHT22;132;48.770;9.200;2022-08-01T11:23:50;26.70;1.00
296;DHT22;132;48.770;9.200;2022-08-01T11:26:38;26.70;1.00
296;DHT22;132;48.770;9.200;2022-08-01T11:29:24;26.60;1.00
296;DHT22;132;48.770;9.200;2022-08-01T11:32:25;26.60;1.00
296;DHT22;132;48.770;9.200;2022-08-01T11:35:12;26.70;1.00
296;DHT22;132;48.770;9.200;2022-08-01T11:38:24;26.60;1.00
296;DHT22;132;48.770;9.200;2022-08-01T11:44:20;26.70;1.00
296;DHT22;132;48.770;9.200;2022-08-01T11:47:11;26.80;1.00
296;DHT22;132;48.770;9.200;2022-08-01T11:49:58;27.00;1.00
296;DHT22;132;48.770;9.200;2022-08-01T11:52:45;27.10;1.00
296;DHT22;132;48.770;9.200;2022-08-01T11:55:33;27.30;1.00
296;DHT22;132;48.770;9.200;2022-08-01T11:58:23;27.40;1.00
296;DHT22;132;48.770;9.200;2022-08-01T12:01:12;27.60;1.00
296;DHT22;132;48.770;9.200;2022-08-01T12:03:59;27.70;1.00
296;DHT22;132;48.770;9.200;2022-08-01T12:06:46;27.80;1.00
296;DHT22;132;48.770;9.200;2022-08-01T12:09:33;27.70;1.00
296;DHT22;132;48.770;9.200;2022-08-01T14:05:21;28.50;1.00
296;DHT22;132;48.770;9.200;2022-08-01T14:08:08;28.50;1.00
296;DHT22;132;48.770;9.200;2022-08-01T14:10:55;28.50;1.00
296;DHT22;132;48.770;9.200;2022-08-01T14:13:44;28.50;1.00
296;DHT22;132;48.770;9.200;2022-08-01T14:16:31;28.50;1.00
296;DHT22;132;48.770;9.200;2022-08-01T14:19:17;28.40;1.00
296;DHT22;132;48.770;9.200;2022-08-01T14:22:04;28.30;1.00
296;DHT22;132;48.770;9.200;2022-08-01T14:24:51;28.40;1.00
296;DHT22;132;48.770;9.200;2022-08-01T14:27:37;28.70;1.00
296;DHT22;132;48.770;9.200;2022-08-01T14:30:26;29.00;1.00
296;DHT22;132;48.770;9.200;2022-08-01T14:33:13;29.10;1.00
296;DHT22;132;48.770;9.200;2022-08-01T14:35:59;29.00;1.00
296;DHT22;132;48.770;9.200;2022-08-01T14:38:46;29.20;1.00
296;DHT22;132;48.770;9.200;2022-08-01T14:41:33;29.90;1.00
296;DHT22;132;48.770;9.200;2022-08-01T14:44:20;29.90;1.00
296;DHT22;132;48.770;9.200;2022-08-01T14:47:06;30.20;1.00
296;DHT22;132;48.770;9.200;2022-08-01T14:49:53;30.60;1.00
296;DHT22;132;48.770;9.200;2022-08-01T14:52:40;31.60;1.00
296;DHT22;132;48.770;9.200;2022-08-01T14:55:27;32.10;1.00
296;DHT22;132;48.770;9.200;2022-08-01T14:58:14;31.90;1.00
296;DHT22;132;48.770;9.200;2022-08-01T15:01:00;32.10;1.00
296;DHT22;132;48.770;9.200;2022-08-01T15:03:47;32.00;1.00
296;DHT22;132;48.770;9.200;2022-08-01T15:06:36;31.50;1.00
296;DHT22;132;48.770;9.200;2022-08-01T15:09:22;31.20;1.00
296;DHT22;132;48.770;9.200;2022-08-01T15:12:10;30.90;1.00
296;DHT22;132;48.770;9.200;2022-08-01T15:14:57;31.60;1.00
296;DHT22;132;48.770;9.200;2022-08-01T15:17:44;31.90;1.00
296;DHT22;132;48.770;9.200;2022-08-01T15:20:31;31.70;1.00
296;DHT22;132;48.770;9.200;2022-08-01T15:23:19;31.70;1.00
296;DHT22;132;48.770;9.200;2022-08-01T15:26:05;31.70;1.00
296;DHT22;132;48.770;9.200;2022-08-01T15:28:55;31.40;1.00
296;DHT22;132;48.770;9.200;2022-08-01T15:31:42;31.10;1.00
296;DHT22;132;48.770;9.200;2022-08-01T15:34:29;31.10;1.00
296;DHT22;132;48.770;9.200;2022-08-01T15:37:15;30.80;1.00
296;DHT22;132;48.770;9.200;2022-08-01T15:40:02;30.50;1.00
296;DHT22;132;48.770;9.200;2022-08-01T15:42:49;30.20;1.00
296;DHT22;132;48.770;9.200;2022-08-01T15:45:36;29.90;1.00
296;DHT22;132;48.770;9.200;2022-08-01T15:48:22;29.50;1.00
296;DHT22;132;48.770;9.200;2022-08-01T15:51:09;29.30;1.00
296;DHT22;132;48.770;9.200;2022-08-01T15:53:56;29.20;1.00
296;DHT22;132;48.770;9.200;2022-08-01T15:56:43;29.00;1.00
296;DHT22;132;48.770;9.200;2022-08-01T15:59:29;28.60;1.00
296;DHT22;132;48.770;9.200;2022-08-01T16:02:16;28.60;1.00
296;DHT22;132;48.770;9.200;2022-08-01T16:05:02;28.50;1.00
296;DHT22;132;48.770;9.200;2022-08-01T16:07:49;28.20;1.00
296;DHT22;132;48.770;9.200;2022-08-01T16:10:36;28.10;1.00
296;DHT22;132;48.770;9.200;2022-08-01T16:13:22;28.10;1.00
296;DHT22;132;48.770;9.200;2022-08-01T16:16:12;28.10;1.00
296;DHT22;132;48.770;9.200;2022-08-01T16:18:59;28.00;1.00
296;DHT22;132;48.770;9.200;2022-08-01T16:21:45;28.00;1.00
296;DHT22;132;48.770;9.200;2022-08-01T16:24:32;28.00;1.00
296;DHT22;132;48.770;9.200;2022-08-01T16:27:19;28.00;1.00
296;DHT22;132;48.770;9.200;2022-08-01T16:30:05;28.00;1.00
296;DHT22;132;48.770;9.200;2022-08-01T16:32:53;28.00;1.00
296;DHT22;132;48.770;9.200;2022-08-01T16:35:40;27.90;1.00
296;DHT22;132;48.770;9.200;2022-08-01T16:38:29;27.80;1.00
296;DHT22;132;48.770;9.200;2022-08-01T16:41:16;27.80;1.00
296;DHT22;132;48.770;9.200;2022-08-01T16:44:03;27.70;1.00
296;DHT22;132;48.770;9.200;2022-08-01T16:46:49;27.60;1.00
296;DHT22;132;48.770;9.200;2022-08-01T16:49:36;27.50;1.00
296;DHT22;132;48.770;9.200;2022-08-01T16:52:22;27.40;1.00
296;DHT22;132;48.770;9.200;2022-08-01T16:55:10;27.30;1.00
296;DHT22;132;48.770;9.200;2022-08-01T16:57:56;27.30;1.00
296;DHT22;132;48.770;9.200;2022-08-01T17:00:44;27.20;1.00
296;DHT22;132;48.770;9.200;2022-08-01T17:03:32;27.20;1.00
296;DHT22;132;48.770;9.200;2022-08-01T17:06:19;27.10;1.00
296;DHT22;132;48.770;9.200;2022-08-01T17:09:05;27.10;1.00
296;DHT22;132;48.770;9.200;2022-08-01T17:11:52;27.30;1.00
296;DHT22;132;48.770;9.200;2022-08-01T17:14:39;27.00;1.00
296;DHT22;132;48.770;9.200;2022-08-01T17:17:25;27.00;1.00
296;DHT22;132;48.770;9.200;2022-08-01T17:20:12;26.90;1.00
296;DHT22;132;48.770;9.200;2022-08-01T17:22:59;26.80;1.00
296;DHT22;132;48.770;9.200;2022-08-01T17:25:45;26.80;1.00
296;DHT22;132;48.770;9.200;2022-08-01T17:28:32;26.70;1.00
296;DHT22;132;48.770;9.200;2022-08-01T17:31:18;26.60;1.00
296;DHT22;132;48.770;9.200;2022-08-01T17:34:05;26.50;1.00
296;DHT22;132;48.770;9.200;2022-08-01T17:36:52;26.50;1.00
296;DHT22;132;48.770;9.200;2022-08-01T17:39:38;26.50;1.00
296;DHT22;132;48.770;9.200;2022-08-01T17:42:25;26.50;1.00
296;DHT22;132;48.770;9.200;2022-08-01T17:45:15;26.40;1.00
296;DHT22;132;48.770;9.200;2022-08-01T17:48:02;26.40;1.00
296;DHT22;132;48.770;9.200;2022-08-01T17:50:48;26.30;1.00
296;DHT22;132;48.770;9.200;2022-08-01T17:53:35;26.20;1.00
296;DHT22;132;48.770;9.200;2022-08-01T17:56:22;26.10;1.00
296;DHT22;132;48.770;9.200;2022-08-01T17:59:08;26.00;1.00
296;DHT22;132;48.770;9.200;2022-08-01T18:01:55;26.00;1.00
296;DHT22;132;48.770;9.200;2022-08-01T18:04:42;25.90;1.00
296;DHT22;132;48.770;9.200;2022-08-01T18:07:28;25.90;1.00
296;DHT22;132;48.770;9.200;2022-08-01T18:10:15;25.80;1.00
296;DHT22;132;48.770;9.200;2022-08-01T18:13:02;25.80;1.00
296;DHT22;132;48.770;9.200;2022-08-01T18:15:49;25.70;1.00
296;DHT22;132;48.770;9.200;2022-08-01T18:18:36;25.70;1.00
296;DHT22;132;48.770;9.200;2022-08-01T18:21:24;25.60;1.00
296;DHT22;132;48.770;9.200;2022-08-01T18:24:10;25.50;1.00
296;DHT22;132;48.770;9.200;2022-08-01T18:26:57;25.50;1.00
296;DHT22;132;48.770;9.200;2022-08-01T18:29:44;25.50;1.00
296;DHT22;132;48.770;9.200;2022-08-01T18:32:30;25.40;1.00
296;DHT22;132;48.770;9.200;2022-08-01T18:35:17;25.30;1.00
296;DHT22;132;48.770;9.200;2022-08-01T18:38:04;25.20;1.00
296;DHT22;132;48.770;9.200;2022-08-01T18:40:51;25.20;1.00
296;DHT22;132;48.770;9.200;2022-08-01T18:43:38;25.10;1.00
296;DHT22;132;48.770;9.200;2022-08-01T18:46:24;25.00;1.00
296;DHT22;132;48.770;9.200;2022-08-01T18:49:11;25.00;1.00
296;DHT22;132;48.770;9.200;2022-08-01T18:51:58;25.00;1.00
296;DHT22;132;48.770;9.200;2022-08-01T18:54:44;24.90;1.00
296;DHT22;132;48.770;9.200;2022-08-01T18:57:31;24.90;1.00
296;DHT22;132;48.770;9.200;2022-08-01T19:00:18;24.80;1.00
296;DHT22;132;48.770;9.200;2022-08-01T19:03:04;24.80;1.00
296;DHT22;132;48.770;9.200;2022-08-01T19:05:51;24.80;1.00
296;DHT22;132;48.770;9.200;2022-08-01T19:08:38;24.80;1.00
296;DHT22;132;48.770;9.200;2022-08-01T19:11:26;24.70;1.00
296;DHT22;132;48.770;9.200;2022-08-01T19:14:12;24.80;1.00
296;DHT22;132;48.770;9.200;2022-08-01T19:16:59;24.70;1.00
296;DHT22;132;48.770;9.200;2022-08-01T19:19:46;24.70;1.00
296;DHT22;132;48.770;9.200;2022-08-01T19:22:33;24.60;1.00
296;DHT22;132;48.770;9.200;2022-08-01T19:25:20;24.50;1.00
296;DHT22;132;48.770;9.200;2022-08-01T19:28:06;24.50;1.00
296;DHT22;132;48.770;9.200;2022-08-01T19:30:54;24.40;1.00
296;DHT22;132;48.770;9.200;2022-08-01T19:33:42;24.30;1.00
296;DHT22;132;48.770;9.200;2022-08-01T19:36:29;24.30;1.00
296;DHT22;132;48.770;9.200;2022-08-01T19:39:17;24.20;1.00
296;DHT22;132;48.770;9.200;2022-08-01T19:42:07;24.20;1.00
296;DHT22;132;48.770;9.200;2022-08-01T19:44:55;24.10;1.00
296;DHT22;132;48.770;9.200;2022-08-01T19:47:42;24.10;1.00
296;DHT22;132;48.770;9.200;2022-08-01T19:50:31;24.10;1.00
296;DHT22;132;48.770;9.200;2022-08-01T19:53:20;24.30;1.00
296;DHT22;132;48.770;9.200;2022-08-01T19:56:09;24.10;1.00
296;DHT22;132;48.770;9.200;2022-08-01T19:58:57;24.20;1.00
296;DHT22;132;48.770;9.200;2022-08-01T20:01:44;24.20;1.00
296;DHT22;132;48.770;9.200;2022-08-01T20:04:32;24.20;1.00
296;DHT22;132;48.770;9.200;2022-08-01T20:07:19;24.10;1.00
296;DHT22;132;48.770;9.200;2022-08-01T20:10:06;24.00;1.00
296;DHT22;132;48.770;9.200;2022-08-01T20:12:55;23.70;1.00
296;DHT22;132;48.770;9.200;2022-08-01T20:15:42;23.40;1.00
296;DHT22;132;48.770;9.200;2022-08-01T20:18:30;23.20;1.00
296;DHT22;132;48.770;9.200;2022-08-01T20:21:18;22.90;1.00
296;DHT22;132;48.770;9.200;2022-08-01T20:24:09;22.70;1.00
296;DHT22;132;48.770;9.200;2022-08-01T20:26:58;22.60;1.00
296;DHT22;132;48.770;9.200;2022-08-01T20:29:47;22.50;1.00
296;DHT22;132;48.770;9.200;2022-08-01T20:32:36;22.40;1.00
296;DHT22;132;48.770;9.200;2022-08-01T20:35:27;22.40;1.00
296;DHT22;132;48.770;9.200;2022-08-01T20:38:14;22.40;1.00
296;DHT22;132;48.770;9.200;2022-08-01T20:41:02;22.30;1.00
296;DHT22;132;48.770;9.200;2022-08-01T20:43:54;22.30;1.00
296;DHT22;132;48.770;9.200;2022-08-01T20:46:41;22.30;1.00
296;DHT22;132;48.770;9.200;2022-08-01T20:49:30;22.30;1.00
296;DHT22;132;48.770;9.200;2022-08-01T20:52:17;22.40;1.00
296;DHT22;132;48.770;9.200;2022-08-01T20:55:04;22.40;1.00
296;DHT22;132;48.770;9.200;2022-08-01T20:57:51;22.40;1.00
296;DHT22;132;48.770;9.200;2022-08-01T21:00:41;22.50;1.00
296;DHT22;132;48.770;9.200;2022-08-01T21:03:38;22.50;1.00
296;DHT22;132;48.770;9.200;2022-08-01T21:06:33;22.50;1.00
296;DHT22;132;48.770;9.200;2022-08-01T21:09:23;22.40;1.00
296;DHT22;132;48.770;9.200;2022-08-01T21:12:18;22.30;1.00
296;DHT22;132;48.770;9.200;2022-08-01T21:15:07;22.30;1.00
296;DHT22;132;48.770;9.200;2022-08-01T21:18:03;22.20;1.00
296;DHT22;132;48.770;9.200;2022-08-01T21:20:59;22.10;1.00
296;DHT22;132;48.770;9.200;2022-08-01T21:23:59;22.10;1.00
296;DHT22;132;48.770;9.200;2022-08-01T21:26:50;21.90;1.00
296;DHT22;132;48.770;9.200;2022-08-01T21:29:38;21.80;1.00
296;DHT22;132;48.770;9.200;2022-08-01T21:32:28;21.70;1.00
296;DHT22;132;48.770;9.200;2022-08-01T21:35:16;21.60;1.00
296;DHT22;132;48.770;9.200;2022-08-01T21:38:03;21.60;1.00
296;DHT22;132;48.770;9.200;2022-08-01T21:40:53;21.50;1.00